Terminal Aerodrome Forecast
Issued by NWS Cleveland, OH

Home | Current Version | Previous Version | Text Only | Print | Product List | Glossary On
Versions: 1 2 3 4 5 6 7 8 9 10 11 12 13 14 15 16
461
FTUS41 KCLE 231139
TAFYNG
TAF
KYNG 231139Z 2312/2412 20008KT 4SM -RA BKN012 OVC025
      TEMPO 2312/2314 2SM -SHRA OVC008
     FM231600 22012G22KT 5SM -SHRA VCTS OVC015CB
      TEMPO 2317/2320 24012KT 1SM TSRA OVC005CB
     FM232200 24010KT 5SM -SHRA OVC018
     FM240100 25007KT P6SM OVC018=

USA.gov is the U.S. government's official web portal to all federal, state and local government web resources and services.